Flight Track Log - Related Links

Times and Time Zones

All times are in EDT time to prevent confusion due to time zone crossing. See the SWA3681 flight status page for this flight to view local times or setup timezone preferences in your user account.

Time Position Orientation Groundspeed Altitude Reporting Facility
EDT Latitude Longitude Course Direction KTS MPH feet Rate Location/Type
Sun 08:43:58 AM 32.8167 -96.8167 248° West 180 207 2,200  Level Dallas / Fort Worth TRACON
Sun 08:44:53 AM 32.7833 -96.7667 128° Southeast 218 251 4,500 2,727 Climbing Dallas / Fort Worth TRACON
Sun 08:45:59 AM 32.7167 -96.7500 168° South 228 262 7,700 2,429 Climbing Dallas / Fort Worth TRACON
Sun 08:46:59 AM 32.6500 -96.7833 203° Southwest 275 316 9,600 2,265 Climbing Dallas / Fort Worth TRACON
Sun 08:49:00 AM 32.7658 -97.5194 248° West  Level FlightAware Approximate
Sun 08:49:15 AM 32.6406 -97.0186 267° West 342 394 15,100  Level Fort Worth Center
Sun 08:50:15 AM 32.6536 -97.1272 278° West 337 388 17,200 2,450 Climbing Fort Worth Center
Sun 08:51:15 AM 32.6661 -97.2406 277° West 344 396 20,000 2,200 Climbing Fort Worth Center
Sun 08:52:15 AM 32.6642 -97.3642 269° West 361 415 21,600 2,100 Climbing Fort Worth Center
Sun 08:53:15 AM 32.6558 -97.4947 266° West 394 453 24,200 2,100 Climbing Fort Worth Center
Sun 08:54:15 AM 32.6475 -97.6231 266° West 394 453 25,800 1,450 Climbing Fort Worth Center
Sun 08:55:15 AM 32.6389 -97.7417 265° West 399 459 27,100 1,850 Climbing Fort Worth Center
Sun 08:56:15 AM 32.6300 -97.8722 265° West 410 472 29,500 2,150 Climbing Fort Worth Center
Sun 08:57:15 AM 32.6211 -98.0006 265° West 398 458 31,400 1,800 Climbing Fort Worth Center
Sun 08:58:15 AM 32.6122 -98.1261 265° West 392 451 33,100 1,600 Climbing Fort Worth Center
Sun 08:59:15 AM 32.6031 -98.2519 265° West 383 441 34,600 1,400 Climbing Fort Worth Center
Sun 09:00:15 AM 32.5917 -98.3850 264° West 383 441 35,900 700 Climbing Fort Worth Center
Sun 09:01:15 AM 32.5822 -98.4933 264° West 383 441 36,000 50 Climbing Fort Worth Center
Sun 09:02:15 AM 32.5728 -98.6164 265° West 383 441 36,000  Level Fort Worth Center
Sun 09:03:15 AM 32.5633 -98.7394 265° West 383 441 36,000  Level Fort Worth Center
Sun 09:04:15 AM 32.5536 -98.8650 265° West 383 441 36,000  Level Fort Worth Center
Sun 09:05:15 AM 32.5436 -98.9906 265° West 383 441 36,000  Level Fort Worth Center
Sun 09:06:15 AM 32.5317 -99.1161 264° West 388 447 36,000  Level Fort Worth Center
Sun 09:07:15 AM 32.5236 -99.2417 266° West 388 447 36,000  Level Fort Worth Center
Sun 09:08:15 AM 32.5111 -99.3669 263° West 388 447 36,000  Level Fort Worth Center
Sun 09:09:15 AM 32.5008 -99.4925 264° West 388 447 36,000  Level Fort Worth Center
Sun 09:10:15 AM 32.4903 -99.6153 264° West 388 447 36,000  Level Fort Worth Center
Sun 09:11:15 AM 32.4778 -99.7431 263° West 388 447 36,000  Level Fort Worth Center
Sun 09:12:15 AM 32.4647 -99.8806 264° West 388 447 36,000  Level Fort Worth Center
Sun 09:13:15 AM 32.4558 -100.0058 265° West 388 447 36,000  Level Fort Worth Center
Sun 09:14:15 AM 32.4450 -100.1286 264° West 388 447 36,000  Level Fort Worth Center
Sun 09:15:15 AM 32.4358 -100.2489 265° West 388 447 36,000  Level Fort Worth Center
Sun 09:16:15 AM 32.4228 -100.3717 263° West 378 435 36,000  Level Fort Worth Center
Sun 09:17:15 AM 32.4136 -100.4869 265° West 373 429 36,000  Level Fort Worth Center
Sun 09:18:15 AM 32.4022 -100.6097 264° West 373 429 36,000  Level Fort Worth Center
Sun 09:19:15 AM 32.3908 -100.7272 263° West 373 429 36,000  Level Fort Worth Center
Sun 09:20:15 AM 32.3794 -100.8425 263° West 361 415 36,000  Level Fort Worth Center
Sun 09:21:15 AM 32.3697 -100.9603 264° West 361 415 36,000  Level Fort Worth Center
Sun 09:22:15 AM 32.3581 -101.0778 263° West 366 421 36,000  Level Fort Worth Center
Sun 09:23:15 AM 32.3464 -101.1953 263° West 366 421 36,000  Level Fort Worth Center
Sun 09:24:15 AM 32.3342 -101.3153 263° West 366 421 36,000  Level Fort Worth Center
Sun 09:25:15 AM 32.3242 -101.4378 265° West 366 421 36,000  Level Fort Worth Center
Sun 09:26:15 AM 32.3075 -101.5597 261° West 366 421 36,000  Level Fort Worth Center
Sun 09:27:15 AM 32.2972 -101.6797 264° West 366 421 36,000  Level Fort Worth Center
Sun 09:28:15 AM 32.2847 -101.8019 263° West 366 421 36,000  Level Fort Worth Center
Sun 09:30:09 AM 32.2628 -102.0211 263° West 374 430 36,000  Level Albuquerque Center
Sun 09:31:09 AM 32.2497 -102.1453 263° West 378 435 36,000  Level Albuquerque Center
Sun 09:32:10 AM 32.2356 -102.2686 262° West 377 434 36,000  Level Albuquerque Center
Sun 09:33:11 AM 32.2217 -102.3939 263° West 380 437 36,000  Level Albuquerque Center
Sun 09:34:11 AM 32.2089 -102.5194 263° West 381 438 36,000  Level Albuquerque Center
Sun 09:35:15 AM 32.1958 -102.6544 264° West 386 444 36,000  Level Fort Worth Center
Sun 09:36:15 AM 32.1803 -102.7761 261° West 386 444 36,000  Level Fort Worth Center
Sun 09:37:15 AM 32.1683 -102.9031 264° West 386 444 36,000  Level Fort Worth Center
Sun 09:38:15 AM 32.1503 -103.0269 260° West 386 444 36,000  Level Fort Worth Center
Sun 09:39:15 AM 32.1375 -103.1472 263° West 387 445 36,000  Level Albuquerque Center
Sun 09:40:15 AM 32.1233 -103.2700 262° West 381 438 36,000  Level Albuquerque Center
Sun 09:41:16 AM 32.1094 -103.3928 262° West 379 436 36,000  Level Albuquerque Center
Sun 09:42:17 AM 32.0936 -103.5156 261° West 379 436 36,000  Level Albuquerque Center
Sun 09:43:17 AM 32.0797 -103.6392 262° West 380 437 36,000  Level Albuquerque Center
Sun 09:44:18 AM 32.0658 -103.7642 263° West 384 442 36,000  Level Albuquerque Center
Sun 09:45:19 AM 32.0536 -103.8911 264° West 389 448 36,000  Level Albuquerque Center
Sun 09:46:20 AM 32.0336 -104.0408 261° West 388 447 36,000  Level Albuquerque Center
Sun 09:47:21 AM 32.0208 -104.1469 262° West 385 443 36,000 -49 Level Albuquerque Center
Sun 09:48:22 AM 32.0061 -104.2708 262° West 384 442 35,900  Descending Albuquerque Center
Sun 09:49:22 AM 31.9867 -104.4214 261° West 388 447 36,000  Climbing Albuquerque Center
Sun 09:50:23 AM 31.9753 -104.5442 264° West 382 440 35,900 -1,082 Descending Albuquerque Center
Sun 09:51:24 AM 31.9625 -104.6636 263° West 373 429 33,800 -2,311 Descending Albuquerque Center
Sun 09:52:25 AM 31.9478 -104.7819 262° West 370 426 31,200 -2,557 Descending Albuquerque Center
Sun 09:53:26 AM 31.9364 -104.9131 264° West 393 452 28,600 -2,410 Descending Albuquerque Center
Sun 09:54:27 AM 31.9231 -105.0381 263° West 392 451 26,300 -2,213 Descending Albuquerque Center
Sun 09:55:28 AM 31.9106 -105.1558 263° West 374 430 24,100 -2,115 Descending Albuquerque Center
Sun 09:56:29 AM 31.8978 -105.2689 262° West 359 413 22,000 -2,115 Descending Albuquerque Center
Sun 09:57:30 AM 31.8864 -105.3817 263° West 351 404 19,800 -2,164 Descending Albuquerque Center
Sun 09:58:31 AM 31.8744 -105.4911 263° West 341 392 17,600 -2,066 Descending Albuquerque Center
Sun 09:59:32 AM 31.8747 -105.5997 270° West 333 383 15,600 -2,115 Descending Albuquerque Center
Sun 10:00:33 AM 31.8742 -105.7236 270° West 317 365 13,300 -2,033 Descending Albuquerque Center
Sun 10:01:33 AM 31.8728 -105.8194 269° West 298 343 11,500 -1,587 Descending Albuquerque Center
Sun 10:02:34 AM 31.8572 -105.9078 258° West 276 318 10,100 -1,420 Descending Albuquerque Center
Sun 10:03:44 AM 31.8311 -106.0006 252° West 244 281 8,400 -1,463 Descending Albuquerque Center
Sun 10:04:37 AM 31.8144 -106.0617 252° West 246 283 7,100 -842 Descending Albuquerque Center
Sun 10:05:38 AM 31.8078 -106.1342 264° West 224 258 6,800 -295 Descending Albuquerque Center
Sun 10:06:39 AM 31.8031 -106.2028 265° West 212 244 6,500 -639 Descending Albuquerque Center
Sun 10:07:40 AM 31.7981 -106.2558 264° West 166 191 5,500 -738 Descending Albuquerque Center
Sun 10:08:41 AM 31.7975 -106.3056 269° West 152 175 5,000 -639 Descending Albuquerque Center
Sun 10:09:42 AM 31.8006 -106.3478 275° West 134 154 4,200 -787 Descending Albuquerque Center
Sun 10:11:00 AM 31.8000 -106.3667 North  Level FlightAware Approximate
Sun 10:18:00 AM 31.8072 -106.3764 North  Level Estimated
Sun 10:19:00 AM 31.8072 -106.3764 North  Level Estimated
Sun 10:20:00 AM 31.8072 -106.3764 North  Level Estimated
Sun 10:21:00 AM 31.8072 -106.3764 North  Level Estimated

Login

Don't have an account? Register now (free) for customized features, flight alerts, and more!